Hanover Beach, Indiana
Current Conditions -  °F | °C
As of 1:53 AM on Thursday 27 Nov 2014 (Local Time) from KLOU Reporting Station
Light Snow Light Snow  
Wind Chill: 34°   Ceiling: 1800
Heat Index: 34°   Visibility: 2mi
Dew Point: 31°   Wind: 3mph
Humidity: 89%   Direction: 340°NNW
Pressure: 30.08"   Gusts: NA
Location:  38.7056°N, 85.4906°W
Report Text: KLOU 270653Z AUTO 34003KT 2SM -SN BR OVC018 01/M01 A3008 RMK AO2 SNB0558 SLP189 P0000 T00111006
Loading
Personal Weather Stations






























Interactive Weather Map New forecast layout! Learn more

10-Day Weather Forecast

Advertisements
Track Severe Weather on mobile